CMA CGM Tosca — FMEL — position and weather

sailwx.info

Track history (hours):
 
Tides and Currents Weather Stations Pressure Air Temp Water Temp Dewpoint Dewpoint Depression Visibility Wind Speed Wind Dir Waves Ship Positions

CMA CGM Tosca

Last reported at 2015-May-18 17:25 UTC. Time now 2015-May-22 23:47 UTC.
Position N 25°59' E 055°38'.

Length 334 m; draft 12.9 m.

Type: Ship. MMSI: 228335900.

Date/timePositionNaut miles runAvg speedWind from/ knotsBaromVisibWave heightAir tempDewpointWater temp
2015-May-18 17:25N 25°59' E 055°38'5619.5
2015-May-18 14:34N 25°20' E 054°55'22 1.1
2015-May-17 19:10N 24°59' E 055°03'1 0.5
2015-May-17 18:04N 24°60' E 055°03'6 9.5
2015-May-17 17:26N 25°05' E 054°59'6 6.5
2015-May-17 16:33N 25°08' E 054°54'5 5.4
2015-May-17 15:33N 25°13' E 054°52'1716.8
2015-May-17 14:33N 25°29' E 054°58'  
2015-May-08 18:29N 30°32' E 032°19'6 6.4
2015-May-08 17:32N 30°38' E 032°20'  
Track history (hours):
 
Tides and Currents Weather Stations Pressure Air Temp Water Temp Dewpoint Dewpoint Depression Visibility Wind Speed Wind Dir Waves Ship Positions

CMA CGM Tosca

Last reported at 2015-May-18 17:25 UTC. Time now 2015-May-22 23:47 UTC.
Position N 25°59' E 055°38'.

Length 334 m; draft 12.9 m.

Type: Ship. MMSI: 228335900.

Date/timePositionNaut miles runAvg speedWind from/ knotsBaromVisibWave heightAir tempDewpointWater temp
2015-May-18 17:25N 25°59' E 055°38'5619.5
2015-May-18 14:34N 25°20' E 054°55'22 1.1
2015-May-17 19:10N 24°59' E 055°03'1 0.5
2015-May-17 18:04N 24°60' E 055°03'6 9.5
2015-May-17 17:26N 25°05' E 054°59'6 6.5
2015-May-17 16:33N 25°08' E 054°54'5 5.4
2015-May-17 15:33N 25°13' E 054°52'1716.8
2015-May-17 14:33N 25°29' E 054°58'  
2015-May-08 18:29N 30°32' E 032°19'6 6.4
2015-May-08 17:32N 30°38' E 032°20'  

Dump ship's entire track history